createdAt,value
2019-03-08T16:45:01.656Z,0
2019-03-08T16:46:01.924Z,1
2019-03-08T16:47:02.161Z,1
2019-03-08T16:48:02.361Z,0
2019-03-08T16:49:02.244Z,1
2019-03-08T16:49:30.330Z,1
2019-03-08T16:50:01.562Z,1
2019-03-08T16:50:26.035Z,1
2019-03-08T16:50:45.546Z,1
2019-03-08T16:51:01.702Z,1
2019-03-08T16:51:44.886Z,1
2019-03-08T16:52:01.903Z,1
2019-03-08T16:53:10.862Z,1
2019-03-08T16:53:21.147Z,1
2019-03-08T16:54:01.872Z,1
2019-03-08T16:55:02.141Z,1
2019-03-08T16:55:02.399Z,1
2019-03-08T16:55:24.445Z,1
2019-03-08T16:55:33.515Z,1
2019-03-08T16:55:54.233Z,1
2019-03-08T16:55:57.845Z,1
2019-03-08T16:55:59.481Z,1
2019-03-08T16:56:02.355Z,1
2019-03-08T16:56:33.477Z,2
2019-03-08T16:57:01.612Z,1
2019-03-08T16:57:47.350Z,1
2019-03-08T16:58:01.794Z,1
2019-03-08T16:58:02.202Z,1
2019-03-08T16:59:01.449Z,1
2019-03-08T16:59:01.972Z,1
2019-03-08T16:59:41.169Z,0
2019-03-08T16:59:46.588Z,0
2019-03-08T16:59:56.303Z,0
2019-03-08T17:00:04.913Z,0
2019-03-08T17:00:44.707Z,1
2019-03-08T17:01:01.775Z,1
2019-03-08T17:02:01.923Z,1
2019-03-08T17:02:31.335Z,1
2019-03-08T17:03:02.174Z,2
2019-03-08T17:04:02.387Z,1
2019-03-08T17:04:35.238Z,1
2019-03-08T17:04:48.760Z,1
2019-03-08T17:04:56.918Z,0
2019-03-08T17:05:01.542Z,0
2019-03-08T17:05:09.353Z,1
2019-03-08T17:05:38.458Z,1
2019-03-08T17:06:01.683Z,2
2019-03-08T17:06:36.747Z,1
2019-03-08T17:07:00.325Z,1
2019-03-08T17:07:01.914Z,1
2019-03-08T17:07:20.167Z,1
2019-03-08T17:08:02.181Z,1
2019-03-08T17:08:32.740Z,0
2019-03-08T17:08:47.652Z,1
2019-03-08T17:09:02.243Z,0
2019-03-08T17:09:59.600Z,1
2019-03-08T17:10:01.999Z,1
2019-03-08T17:11:02.826Z,0
2019-03-08T17:12:02.047Z,1
2019-03-08T17:12:03.917Z,1
2019-03-08T17:13:02.334Z,1
2019-03-08T17:14:02.522Z,1
2019-03-08T17:15:02.726Z,0
2019-03-08T17:16:02.017Z,1
2019-03-08T17:17:02.553Z,1
2019-03-08T17:18:02.385Z,1
2019-03-08T17:19:12.506Z,1
2019-03-08T17:20:01.988Z,1
2019-03-08T17:21:02.154Z,0
2019-03-08T17:22:02.489Z,1
2019-03-08T17:23:02.573Z,2
2019-03-08T17:24:02.243Z,1
2019-03-08T17:25:02.573Z,0
2019-03-08T17:25:24.890Z,1
2019-03-08T17:26:02.257Z,1
2019-03-08T17:26:16.740Z,1
2019-03-08T17:27:01.579Z,1
2019-03-08T17:27:04.758Z,0
2019-03-08T17:27:21.172Z,0
2019-03-08T17:27:56.895Z,1
2019-03-08T17:28:01.649Z,1
2019-03-08T17:29:01.899Z,2
2019-03-08T17:30:02.147Z,1
2019-03-08T17:31:02.290Z,1
2019-03-08T17:31:20.239Z,1
2019-03-08T17:31:54.207Z,0
2019-03-08T17:32:01.523Z,0
2019-03-08T17:33:01.783Z,1
2019-03-08T17:33:07.914Z,0
2019-03-08T17:33:39.937Z,0
2019-03-08T17:34:02.016Z,1
2019-03-08T17:34:09.377Z,1
2019-03-08T17:34:46.176Z,1
2019-03-08T17:35:02.198Z,1
2019-03-08T17:35:11.282Z,1
2019-03-08T17:36:02.332Z,1
2019-03-08T17:37:01.580Z,1
2019-03-08T17:38:01.829Z,0
2019-03-08T17:39:01.964Z,0
2019-03-08T17:40:02.230Z,1
2019-03-08T17:41:01.436Z,0
2019-03-08T17:42:01.656Z,1
2019-03-08T17:43:01.915Z,0
2019-03-08T17:44:02.043Z,1
2019-03-08T17:45:01.495Z,1
2019-03-08T17:46:01.729Z,0
2019-03-08T17:47:02.108Z,0
2019-03-08T17:48:02.328Z,1
2019-03-08T17:49:01.530Z,0
2019-03-08T17:50:01.763Z,2
2019-03-08T17:51:02.063Z,1
2019-03-08T17:52:02.253Z,1
2019-03-08T17:53:01.506Z,1
2019-03-08T17:54:01.693Z,1
2019-03-08T17:55:01.953Z,1
2019-03-08T17:56:02.083Z,1
2019-03-08T17:57:02.333Z,1
2019-03-08T17:58:01.469Z,1
2019-03-08T17:59:01.750Z,1
2019-03-08T18:00:04.310Z,0
2019-03-08T18:01:02.212Z,0
2019-03-08T18:02:01.473Z,0
2019-03-08T18:03:01.683Z,1
2019-03-08T18:04:01.916Z,1
2019-03-08T18:05:02.079Z,0
2019-03-08T18:06:02.315Z,1
2019-03-08T18:07:01.537Z,0
2019-03-08T18:08:01.716Z,2
2019-03-08T18:09:02.064Z,1
2019-03-08T18:10:02.182Z,1
2019-03-08T18:11:01.455Z,1
2019-03-08T18:12:01.626Z,0
2019-03-08T18:13:01.894Z,0
2019-03-08T18:14:02.127Z,1
2019-03-08T18:15:02.426Z,1
2019-03-08T18:16:01.729Z,1
2019-03-08T18:17:01.918Z,1
2019-03-08T18:18:02.165Z,2
2019-03-08T18:19:02.446Z,1
2019-03-08T18:20:01.559Z,1
2019-03-08T18:21:01.873Z,0
2019-03-08T18:22:02.026Z,2
2019-03-08T18:23:02.280Z,1
2019-03-08T18:24:01.492Z,1
2019-03-08T18:25:01.697Z,1
2019-03-08T18:26:02.004Z,1
2019-03-08T18:27:02.172Z,2
2019-03-08T18:28:02.346Z,2
2019-03-08T18:29:01.585Z,1
2019-03-08T18:30:01.859Z,2
2019-03-08T18:31:01.981Z,1
2019-03-08T18:32:02.174Z,1
2019-03-08T18:33:01.427Z,1
2019-03-08T18:34:01.570Z,1
2019-03-08T18:35:01.793Z,0
2019-03-08T18:36:02.103Z,1
2019-03-08T18:37:02.277Z,1
2019-03-08T18:38:01.531Z,1
2019-03-08T18:39:01.758Z,1
2019-03-08T18:40:02.030Z,1
2019-03-08T18:41:02.298Z,2
2019-03-08T18:42:01.443Z,2
2019-03-08T18:43:01.667Z,1
2019-03-08T18:44:01.821Z,0
2019-03-08T18:45:02.039Z,1
2019-03-08T18:46:02.248Z,1
2019-03-08T18:47:01.493Z,1
2019-03-08T18:48:01.690Z,1
2019-03-08T18:49:01.956Z,0
2019-03-08T18:50:02.157Z,2
2019-03-08T18:51:02.388Z,1
2019-03-08T18:52:01.517Z,1
2019-03-08T18:53:01.770Z,1
2019-03-08T18:54:01.867Z,1
2019-03-08T18:55:02.174Z,2
2019-03-08T18:56:02.404Z,2
2019-03-08T18:57:01.730Z,2
2019-03-08T18:58:01.761Z,2
2019-03-08T18:59:01.915Z,2
2019-03-08T19:00:04.189Z,2
2019-03-08T19:01:02.021Z,1
2019-03-08T19:02:02.332Z,1
2019-03-08T19:03:01.550Z,1
2019-03-08T19:04:01.674Z,2
2019-03-08T19:05:02.040Z,1
2019-03-08T19:06:02.249Z,2
2019-03-08T19:07:02.453Z,1
2019-03-08T19:08:01.540Z,1
2019-03-08T19:09:01.544Z,1
2019-03-08T19:10:01.795Z,1
2019-03-08T19:11:02.047Z,2
2019-03-08T19:12:02.206Z,0
2019-03-08T19:13:02.338Z,1
2019-03-08T19:14:01.533Z,2
2019-03-08T19:15:01.876Z,2
2019-03-08T19:16:02.090Z,2
2019-03-08T19:17:02.235Z,2
2019-03-08T19:18:02.429Z,1
2019-03-08T19:19:01.631Z,1
2019-03-08T19:20:01.861Z,1
2019-03-08T19:21:02.136Z,1
2019-03-08T19:22:02.371Z,2
2019-03-08T19:23:01.597Z,2
2019-03-08T19:24:01.778Z,2
2019-03-08T19:25:01.887Z,1
2019-03-08T19:26:02.216Z,1
2019-03-08T19:27:02.415Z,2
2019-03-08T19:28:01.552Z,2
2019-03-08T19:29:01.731Z,3
2019-03-08T19:30:01.996Z,2
2019-03-08T19:31:02.111Z,2
2019-03-08T19:32:02.365Z,3
2019-03-08T19:33:01.629Z,6
2019-03-08T19:34:01.889Z,6
2019-03-08T19:35:02.058Z,7
2019-03-08T19:36:02.231Z,18
2019-03-08T19:37:02.355Z,15
2019-03-08T19:38:01.500Z,16
2019-03-08T19:39:01.663Z,13
2019-03-08T19:40:01.926Z,13
2019-03-08T19:41:02.148Z,14
2019-03-08T19:42:02.303Z,11
2019-03-08T19:43:01.402Z,14
2019-03-08T19:44:01.589Z,13
2019-03-08T19:45:01.851Z,12
2019-03-08T19:46:02.004Z,11
2019-03-08T19:47:02.156Z,12
2019-03-08T19:48:02.432Z,11
2019-03-08T19:49:01.607Z,12
2019-03-08T19:50:01.770Z,10
2019-03-08T19:51:01.981Z,10
2019-03-08T19:52:02.127Z,11
2019-03-08T19:53:02.418Z,9
2019-03-08T19:54:01.542Z,10
2019-03-08T19:55:01.882Z,10
2019-03-08T19:56:02.137Z,9
2019-03-08T19:57:02.152Z,9
2019-03-08T19:58:02.328Z,9
2019-03-08T19:59:01.494Z,10
2019-03-08T20:00:03.997Z,8
2019-03-08T20:01:02.311Z,9
2019-03-08T20:02:01.535Z,6
2019-03-08T20:03:01.851Z,9
2019-03-08T20:04:02.041Z,7
2019-03-08T20:05:02.305Z,10
2019-03-08T20:06:01.594Z,7
2019-03-08T20:07:01.747Z,8
2019-03-08T20:08:02.026Z,8
2019-03-08T20:09:02.237Z,6
2019-03-08T20:10:01.606Z,6
2019-03-08T20:11:01.806Z,6
2019-03-08T20:12:01.892Z,7
2019-03-08T20:13:02.137Z,7
2019-03-08T20:14:01.578Z,7
2019-03-08T20:15:01.841Z,6
2019-03-08T20:16:02.140Z,6
2019-03-08T20:17:02.283Z,5
2019-03-08T20:18:01.416Z,6
2019-03-08T20:19:01.497Z,7
2019-03-08T20:20:01.778Z,8
2019-03-08T20:21:02.054Z,6
2019-03-08T20:22:02.220Z,6
2019-03-08T20:23:01.532Z,6
2019-03-08T20:24:02.315Z,8
2019-03-08T20:25:01.446Z,5
2019-03-08T20:26:01.600Z,7
2019-03-08T20:27:01.700Z,6
2019-03-08T20:28:01.908Z,5
2019-03-08T20:29:01.944Z,5
2019-03-08T20:30:02.330Z,4
2019-03-08T20:31:01.475Z,5
2019-03-08T20:32:01.704Z,5
2019-03-08T20:33:01.977Z,6
2019-03-08T20:34:02.216Z,6
2019-03-08T20:35:02.404Z,5
2019-03-08T20:36:01.620Z,5
2019-03-08T20:37:01.856Z,6
2019-03-08T20:38:02.192Z,6
2019-03-08T20:39:02.333Z,5
2019-03-08T20:40:01.467Z,5
2019-03-08T20:41:01.609Z,4
2019-03-08T20:42:01.915Z,3
2019-03-08T20:43:02.060Z,4
2019-03-08T20:44:02.229Z,5
2019-03-08T20:45:02.431Z,3
2019-03-08T20:46:01.648Z,3
2019-03-08T20:47:01.860Z,5
2019-03-08T20:48:01.987Z,5
2019-03-08T20:49:02.292Z,5
2019-03-08T20:50:01.636Z,4
2019-03-08T20:51:01.744Z,5
2019-03-08T20:52:01.890Z,3
2019-03-08T20:53:02.039Z,3
2019-03-08T20:54:02.235Z,4
2019-03-08T20:55:02.398Z,4
2019-03-08T20:56:01.562Z,4
2019-03-08T20:57:01.843Z,4
2019-03-08T20:58:02.100Z,3
2019-03-08T20:59:02.381Z,3
2019-03-08T21:00:04.634Z,2
2019-03-08T21:01:01.454Z,5
2019-03-08T21:02:01.713Z,4
2019-03-08T21:03:01.945Z,4
2019-03-08T21:04:02.052Z,3
2019-03-08T21:05:01.723Z,4
2019-03-08T21:06:01.930Z,3
2019-03-08T21:07:02.245Z,5
2019-03-08T21:08:02.360Z,5
2019-03-08T21:09:01.629Z,4
2019-03-08T21:10:01.849Z,3
2019-03-08T21:11:02.084Z,4
2019-03-08T21:12:02.358Z,3
2019-03-08T21:13:01.422Z,3
2019-03-08T21:14:01.652Z,4
2019-03-08T21:15:02.014Z,3
2019-03-08T21:16:02.125Z,3
2019-03-08T21:17:02.326Z,3
2019-03-08T21:18:01.446Z,2
2019-03-08T21:19:01.732Z,4
2019-03-08T21:20:02.036Z,3
2019-03-08T21:21:02.264Z,4
2019-03-08T21:22:01.469Z,4
2019-03-08T21:23:01.792Z,3
2019-03-08T21:24:01.979Z,3
2019-03-08T21:25:02.166Z,3
2019-03-08T21:26:02.287Z,3
2019-03-08T21:27:01.520Z,3
2019-03-08T21:28:01.815Z,4
2019-03-08T21:29:02.021Z,3
2019-03-08T21:30:02.259Z,4
2019-03-08T21:31:02.385Z,3
2019-03-08T21:32:01.698Z,2
2019-03-08T21:33:01.926Z,2
2019-03-08T21:34:02.193Z,3
2019-03-08T21:35:01.572Z,4
2019-03-08T21:36:01.646Z,2
2019-03-08T21:37:01.892Z,3
2019-03-08T21:38:02.092Z,2
2019-03-08T21:39:02.330Z,3
2019-03-08T21:40:01.632Z,2
2019-03-08T21:41:01.813Z,2
2019-03-08T21:42:02.005Z,3
2019-03-08T21:43:02.214Z,2
2019-03-08T21:44:01.488Z,3
2019-03-08T21:45:01.739Z,2
2019-03-08T21:46:01.949Z,1
2019-03-08T21:47:01.917Z,1
2019-03-08T21:48:02.208Z,1
2019-03-08T21:49:02.334Z,2
2019-03-08T21:50:01.665Z,2
2019-03-08T21:51:01.812Z,1
2019-03-08T21:52:02.009Z,3
2019-03-08T21:53:02.304Z,3
2019-03-08T21:54:01.465Z,1
2019-03-08T21:55:01.473Z,3
2019-03-08T21:56:02.412Z,1
2019-03-08T21:57:01.821Z,3
2019-03-08T21:58:02.147Z,2
2019-03-08T21:59:02.335Z,2
2019-03-08T22:00:03.802Z,2
2019-03-08T22:01:01.644Z,1
2019-03-08T22:02:01.787Z,3
2019-03-08T22:03:02.018Z,2
2019-03-08T22:04:02.205Z,2
2019-03-08T22:05:01.464Z,1
2019-03-08T22:06:01.725Z,2
2019-03-08T22:07:01.987Z,2
2019-03-08T22:08:02.178Z,2
2019-03-08T22:09:02.362Z,3
2019-03-08T22:10:01.497Z,3
2019-03-08T22:11:01.710Z,2
2019-03-08T22:12:01.982Z,2
2019-03-08T22:13:02.196Z,1
2019-03-08T22:14:02.354Z,2
2019-03-08T22:15:01.692Z,1
2019-03-08T22:16:01.762Z,2
2019-03-08T22:17:02.044Z,2
2019-03-08T22:18:02.316Z,2
2019-03-08T22:19:01.638Z,3
2019-03-08T22:20:01.821Z,2
2019-03-08T22:21:01.982Z,2
2019-03-08T22:22:02.279Z,2
2019-03-08T22:23:01.525Z,1
2019-03-08T22:24:01.690Z,1
2019-03-08T22:25:01.905Z,1
2019-03-08T22:26:02.088Z,2
2019-03-08T22:27:02.397Z,2
2019-03-08T22:28:01.613Z,0
2019-03-08T22:29:01.784Z,2
2019-03-08T22:30:02.072Z,1
2019-03-08T22:31:02.261Z,2
2019-03-08T22:32:01.501Z,1
2019-03-08T22:33:01.766Z,1
2019-03-08T22:34:02.122Z,1
2019-03-08T22:35:02.240Z,2
2019-03-08T22:36:01.494Z,2
2019-03-08T22:37:01.608Z,2
2019-03-08T22:38:01.943Z,2
2019-03-08T22:39:02.098Z,2
2019-03-08T22:40:02.421Z,1
2019-03-08T22:41:01.619Z,2
2019-03-08T22:42:01.983Z,2
2019-03-08T22:43:02.345Z,1
2019-03-08T22:44:02.395Z,2
2019-03-08T22:45:01.665Z,2
2019-03-08T22:46:01.872Z,1
2019-03-08T22:47:02.105Z,1
2019-03-08T22:48:02.187Z,0
2019-03-08T22:49:01.473Z,1
2019-03-08T22:50:01.774Z,1
2019-03-08T22:51:02.281Z,1
2019-03-08T22:52:01.561Z,1
2019-03-08T22:53:01.704Z,1
2019-03-08T22:54:02.027Z,0
2019-03-08T22:55:02.290Z,2
2019-03-08T22:56:01.503Z,1
2019-03-08T22:57:01.747Z,1
2019-03-08T22:58:02.003Z,2
2019-03-08T22:59:02.186Z,1
2019-03-08T23:00:06.688Z,1
2019-03-08T23:01:01.415Z,2
2019-03-08T23:02:01.629Z,1
2019-03-08T23:03:02.042Z,2
2019-03-08T23:04:02.224Z,1
2019-03-08T23:05:02.472Z,2
2019-03-08T23:06:01.729Z,1
2019-03-08T23:07:01.848Z,2
2019-03-08T23:08:02.060Z,1
2019-03-08T23:09:02.269Z,2
2019-03-08T23:10:01.532Z,1
2019-03-08T23:11:01.780Z,1
2019-03-08T23:12:02.082Z,2
2019-03-08T23:13:02.411Z,1
2019-03-08T23:14:01.408Z,2
2019-03-08T23:15:01.705Z,1
2019-03-08T23:16:01.989Z,1
2019-03-08T23:17:02.198Z,2
2019-03-08T23:18:02.128Z,2
2019-03-08T23:19:01.470Z,1
2019-03-08T23:20:01.662Z,2
2019-03-08T23:21:01.907Z,1
2019-03-08T23:22:02.147Z,2
2019-03-08T23:23:02.313Z,2
2019-03-08T23:24:01.487Z,2
2019-03-08T23:25:01.596Z,2
2019-03-08T23:26:01.846Z,1
2019-03-08T23:27:01.940Z,2
2019-03-08T23:28:02.226Z,2
2019-03-08T23:29:01.488Z,3
2019-03-08T23:30:01.677Z,1
2019-03-08T23:31:01.889Z,2
2019-03-08T23:32:02.056Z,2
2019-03-08T23:33:02.272Z,1
2019-03-08T23:34:02.883Z,1
2019-03-08T23:35:01.823Z,2
2019-03-08T23:36:02.066Z,1
2019-03-08T23:37:02.212Z,2
2019-03-08T23:38:01.479Z,3
2019-03-08T23:39:01.644Z,2
2019-03-08T23:40:01.856Z,2
2019-03-08T23:41:02.136Z,2
2019-03-08T23:42:02.268Z,1
2019-03-08T23:43:01.489Z,2
2019-03-08T23:44:01.740Z,2
2019-03-08T23:45:01.966Z,2
2019-03-08T23:46:02.229Z,2
2019-03-08T23:47:02.347Z,2
2019-03-08T23:48:01.587Z,2
2019-03-08T23:49:01.827Z,2
2019-03-08T23:50:02.099Z,3
2019-03-08T23:51:02.296Z,1
2019-03-08T23:52:01.527Z,2
2019-03-08T23:53:01.749Z,2
2019-03-08T23:54:03.718Z,3
2019-03-08T23:55:02.133Z,3
2019-03-08T23:56:02.426Z,2
2019-03-08T23:57:01.603Z,2
2019-03-08T23:58:01.726Z,3
2019-03-08T23:59:01.958Z,2
